Aeroporto :
LOGIN :

Iscrizione | Disclaimer

   EN    FR    IT 

 










Sommario :    VFR   VFR Marginale   IFR   IFR Intensivo   IFR Molto Intensivo
Visibilità : 
Base nubi : 
>= 8 km
>= 3000ft
5 / 8 km
1000 / 3000 ft
1500m / 5 km
500 / 1000 ft
800 / 1500m
200 / 500 ft
< 800m
< 200 ft
Simboli :   Temporali  Nebbia  Neve Forte  Precipitazioni Forti  Vento > 20 kt
SIGMETs :   Varie  Temporali  Ghiacco  Turbolenza  Onda orograficha  Ceneri Vulcaniche






- Altitudine del aeroporto : 49 ft
- Codice IATA : GLZ


EHGR - Gilze-Rijen Airbase

ULTIMO METAR :
  • 200631Z AUTO 19003KT 140V260 5000 BR NCD M02/M02 Q1018 WHT

METARs OBSOLETI :
  • 200626Z AUTO 20003KT 100V260 2700 BR NCD M02/M03 Q1018 YLO
  • 200625Z AUTO VRB02KT 4600 BR NCD M02/M03 Q1018 GRN
  • 200613Z AUTO 11001KT 3800 BR BKN370 M03/M03 Q1018 GRN
  • 200555Z AUTO 09002KT 8000 BR SCT370 M03/M03 Q1018 BLU
  • 200539Z AUTO 08002KT 9000 BR NCD M03/M03 Q1018 BLU
  • 200529Z AUTO VRB01KT 8000 BR NCD M03/M03 Q1018 BLU
  • 200512Z AUTO 10003KT 6000 BR NCD M03/M03 Q1018 WHT
  • 200459Z AUTO 06002KT 6000 BR NCD M03/M04 Q1018 WHT
  • 200455Z AUTO 06002KT 3600 BR NCD M03/M03 Q1018 YLO
  • 200444Z AUTO 11001KT 8000 BR NCD M03/M04 Q1018 BLU
  • 200436Z AUTO 11002KT 4700 BR NCD M04/M04 Q1018 GRN
  • 200425Z AUTO 11001KT 5000 BR NCD M04/M04 Q1018 WHT
  • 200407Z AUTO 11001KT 6000 BR NCD M03/M04 Q1018 WHT
  • 200406Z AUTO 11001KT 2200 BR NCD M03/M03 Q1019 YLO
  • 200355Z AUTO 15002KT 0900 FZFG NCD M03/M04 Q1018 AMB

TAF TAF EHGR
Valido dal 20 a 06 ore il 20 a 18 ore UTC


200539Z 2006/2018 VRB03KT 7000 NSC
TEMPO 2006/2018 3000 BR MIFG
PROB40
TEMPO 2006/2009 0500 FZFG
BECMG 2010/2013 09006KT
PROB40
TEMPO 2011/2018 SCT004 BKN008



MetMap, La meteo Aeronautica in un colpo d'occhio ! - Copyright ORBIFLY Dicembre 2007 - Disclaimer

ORBIFLY MET'MAP TEAM :

Programmazione e sviluppo : Alexandra Zaïnal
Concezione e sviluppo : Baudouin d'Aumeries
Co-Programmazione e sviluppo : Marc-Olivier Méhu
Supporto tecnico e logistico : Manuel Goepfert
Aiuto per la traduzione : Arnaldo La Scala

Contatto : metmap@orbifly.com




FONTI E CREDITI :

   NOAA